createdAt,value
2023-04-11T00:08:58.438Z,63.25
2023-04-11T00:19:04.330Z,63.20
2023-04-11T00:29:09.654Z,63.26
2023-04-11T00:39:15.249Z,63.23
2023-04-11T00:49:20.846Z,63.23
2023-04-11T00:59:25.898Z,63.55
2023-04-11T01:09:31.581Z,63.51
2023-04-11T01:19:37.382Z,63.58
2023-04-11T01:29:42.882Z,63.78
2023-04-11T01:39:48.617Z,63.96
2023-04-11T01:49:54.357Z,63.82
2023-04-11T02:00:00.205Z,63.86
2023-04-11T02:10:05.751Z,64.09
2023-04-11T02:20:11.684Z,64.07
2023-04-11T02:30:19.007Z,64.13
2023-04-11T02:40:24.991Z,64.07
2023-04-11T02:50:30.263Z,63.95
2023-04-11T03:00:36.010Z,64.16
2023-04-11T03:10:42.352Z,63.96
2023-04-11T03:20:48.065Z,64.78
2023-04-11T03:30:53.892Z,64.65
2023-04-11T03:40:59.420Z,64.78
2023-04-11T03:51:05.519Z,64.76
2023-04-11T04:01:11.575Z,65.13
2023-04-11T04:11:17.098Z,64.93
2023-04-11T04:21:22.490Z,64.93
2023-04-11T04:31:28.205Z,64.81
2023-04-11T04:41:33.816Z,64.74
2023-04-11T04:51:39.157Z,64.88
2023-04-11T05:01:44.995Z,64.95
2023-04-11T05:11:50.830Z,64.97
2023-04-11T05:21:56.293Z,65.40
2023-04-11T05:32:01.737Z,65.53
2023-04-11T05:42:08.097Z,65.51
2023-04-11T05:52:14.308Z,61.97
2023-04-11T06:02:19.816Z,75.32
2023-04-11T06:12:24.500Z,80.89
2023-04-11T06:22:30.234Z,81.33
2023-04-11T06:32:36.798Z,72.52
2023-04-11T06:42:43.850Z,69.72
2023-04-11T06:52:50.750Z,69.15
2023-04-11T07:02:57.572Z,70.49
2023-04-11T07:13:03.029Z,75.67
2023-04-11T07:23:08.684Z,75.56
2023-04-11T07:33:15.540Z,71.74
2023-04-11T07:43:23.041Z,67.13
2023-04-11T07:53:29.734Z,65.58
2023-04-11T08:03:36.443Z,64.46
2023-04-11T08:13:42.944Z,63.50
2023-04-11T08:23:52.022Z,63.26
2023-04-11T08:34:00.615Z,62.54
2023-04-11T08:44:07.946Z,62.73
2023-04-11T08:54:14.609Z,62.78
2023-04-11T09:04:22.382Z,61.81
2023-04-11T09:14:29.451Z,62.38
2023-04-11T09:24:36.037Z,62.45
2023-04-11T09:34:42.746Z,62.50
2023-04-11T09:44:51.594Z,62.18
2023-04-11T09:54:56.972Z,62.21
2023-04-11T10:05:03.760Z,62.77
2023-04-11T10:15:09.467Z,63.05
2023-04-11T10:25:15.927Z,63.41
2023-04-11T10:35:22.000Z,63.66
2023-04-11T10:45:27.916Z,63.43
2023-04-11T10:55:35.643Z,63.18
2023-04-11T11:05:42.489Z,63.32
2023-04-11T11:15:48.058Z,63.33
2023-04-11T11:25:53.350Z,63.60
2023-04-11T11:35:59.255Z,63.66
2023-04-11T11:46:06.352Z,63.67
2023-04-11T11:56:13.071Z,63.66
2023-04-11T12:06:18.556Z,63.78
2023-04-11T12:16:24.244Z,63.96
2023-04-11T12:26:30.317Z,63.92
2023-04-11T12:36:36.020Z,64.00
2023-04-11T12:46:41.103Z,63.97
2023-04-11T12:56:46.800Z,63.85
2023-04-11T13:06:52.310Z,63.88
2023-04-11T13:16:57.824Z,63.91
2023-04-11T13:27:03.561Z,64.02
2023-04-11T13:37:09.345Z,63.95
2023-04-11T13:47:15.278Z,64.07
2023-04-11T13:57:20.813Z,64.07
2023-04-11T14:07:26.734Z,64.04
2023-04-11T14:17:32.221Z,64.10
2023-04-11T14:27:37.642Z,64.12
2023-04-11T14:37:43.140Z,64.09
2023-04-11T14:47:48.736Z,64.04
2023-04-11T14:57:54.694Z,64.00
2023-04-11T15:08:00.061Z,63.92
2023-04-11T15:18:05.959Z,64.08
2023-04-11T15:28:11.787Z,64.12
2023-04-11T15:38:18.189Z,64.10
2023-04-11T15:48:24.315Z,63.94
2023-04-11T15:58:30.955Z,63.98
2023-04-11T16:09:57.774Z,63.85
2023-04-11T16:20:03.090Z,63.94
2023-04-11T16:30:08.606Z,63.97
2023-04-11T16:40:14.408Z,64.16
2023-04-11T16:50:20.415Z,64.32
2023-04-11T17:00:32.110Z,64.24
2023-04-11T17:10:39.001Z,64.44
2023-04-11T17:20:47.217Z,64.52
2023-04-11T17:30:52.911Z,64.57
2023-04-11T17:41:06.742Z,64.66
2023-04-11T17:51:11.446Z,64.62
2023-04-11T18:01:17.131Z,64.76
2023-04-11T18:11:23.789Z,64.81
2023-04-11T18:21:29.564Z,64.89
2023-04-11T18:31:36.641Z,64.90
2023-04-11T18:41:43.379Z,65.05
2023-04-11T18:51:49.375Z,63.48
2023-04-11T19:01:55.126Z,64.44
2023-04-11T19:12:00.907Z,64.67
2023-04-11T19:22:08.634Z,64.64
2023-04-11T19:32:14.277Z,64.52
2023-04-11T19:42:20.377Z,64.80
2023-04-11T19:52:26.048Z,64.72
2023-04-11T20:02:31.771Z,65.02
2023-04-11T20:12:39.951Z,65.26
2023-04-11T20:22:45.111Z,65.83
2023-04-11T20:32:51.794Z,66.02
2023-04-11T20:43:01.333Z,66.30
2023-04-11T20:53:09.894Z,66.22
2023-04-11T21:03:16.170Z,66.42
2023-04-11T21:13:22.923Z,66.42
2023-04-11T21:23:28.687Z,66.65
2023-04-11T21:33:34.092Z,66.47
2023-04-11T21:43:39.425Z,66.81
2023-04-11T21:53:46.327Z,67.18
2023-04-11T22:03:54.783Z,67.49
2023-04-11T22:14:00.636Z,67.77
2023-04-11T22:24:06.116Z,67.74
2023-04-11T22:34:11.908Z,68.02
2023-04-11T22:44:17.278Z,68.56
2023-04-11T22:54:23.059Z,69.07
2023-04-11T23:04:28.365Z,68.35
2023-04-11T23:14:34.111Z,69.12
2023-04-11T23:24:39.805Z,69.35
2023-04-11T23:34:45.244Z,69.45
2023-04-11T23:44:51.006Z,69.77
2023-04-11T23:54:56.907Z,69.71
